KAUS - Austin/Bergstrom Int, TX, US

Issued at 2320 UTC 31 Oct 2020
Updated at 0111 UTC 01 Nov 2020
Potential Impact None Slight Moderate High
Time0053Z 01/02Z 01/03Z 01/04Z 01/05Z 01/06Z 01/07Z 01/08Z 01/09Z 01/10Z 01/11Z 01/12Z 01/13Z 01/14Z>>
Type OBS PRVL PRVL PRVL PRVL PRVL PRVL PRVL PRVL PRVL PRVL PRVL PRVL PRVL
VIS 10 >6 >6 >6 >6 >6 >6 >6 >6 >6 >6 >6 >6 >6
CIG -- -- -- -- -- -- -- -- -- -- -- -- -- --
Cover FEW FEW FEW FEW FEW FEW FEW FEW FEW FEW FEW FEW FEW FEW
FltCat VFR VFR VFR VFR VFR VFR VFR VFR VFR VFR VFR VFR VFR VFR
WX -- -- -- -- -- -- -- -- -- -- -- -- -- --
WDir VRB 160 160 160 160 160 160 160 160 160 160 160 160 160
WSpd 0 6 6 6 6 6 6 6 6 6 6 6 6 6
WGst -- -- -- -- -- -- -- -- -- -- -- -- -- --
Raw TAF
KAUS 312320Z 0100/0206 16006KT P6SM FEW200 FEW250
  FM011500 01016KT P6SM SCT250
  FM020000 02008KT P6SM SCT250


Raw METAR
KAUS 010053Z 00000KT 10SM FEW200 14/08 A3012 RMK AO2 SLP201 T01390078
KAUS 312353Z 00000KT 10SM FEW200 FEW250 18/06 A3010 RMK AO2 SLP193 T01780061 10256 20178 53002
KAUS 312253Z 16007KT 10SM FEW200 FEW250 24/05 A3008 RMK AO2 SLP185 T02440050

METAR Board
Radar Display
Forecast Discussion
For situational awareness. Not to be used for flight planning purposes.